sensor_id;sensor_type;location;lat;lon;timestamp;temperature;humidity
51996;DHT22;38010;53.264;6.592;2022-09-17T00:01:57;18.10;99.90
51996;DHT22;38010;53.264;6.592;2022-09-17T00:04:23;18.10;99.90
51996;DHT22;38010;53.264;6.592;2022-09-17T00:06:48;18.10;99.90
51996;DHT22;38010;53.264;6.592;2022-09-17T00:09:15;18.00;99.90
51996;DHT22;38010;53.264;6.592;2022-09-17T00:11:42;18.00;99.90
51996;DHT22;38010;53.264;6.592;2022-09-17T00:14:13;18.00;99.90
51996;DHT22;38010;53.264;6.592;2022-09-17T00:16:44;18.00;99.90
51996;DHT22;38010;53.264;6.592;2022-09-17T00:19:18;18.00;99.90
51996;DHT22;38010;53.264;6.592;2022-09-17T00:21:45;18.00;99.90
51996;DHT22;38010;53.264;6.592;2022-09-17T00:24:12;18.00;99.90
51996;DHT22;38010;53.264;6.592;2022-09-17T00:26:38;18.00;99.90
51996;DHT22;38010;53.264;6.592;2022-09-17T00:29:05;18.00;99.90
51996;DHT22;38010;53.264;6.592;2022-09-17T00:31:31;17.90;99.90
51996;DHT22;38010;53.264;6.592;2022-09-17T00:34:00;17.90;99.90
51996;DHT22;38010;53.264;6.592;2022-09-17T00:36:27;17.90;99.90
51996;DHT22;38010;53.264;6.592;2022-09-17T00:38:54;17.90;99.90
51996;DHT22;38010;53.264;6.592;2022-09-17T00:41:21;17.90;99.90
51996;DHT22;38010;53.264;6.592;2022-09-17T00:43:52;17.90;99.90
51996;DHT22;38010;53.264;6.592;2022-09-17T00:46:37;17.90;99.90
51996;DHT22;38010;53.264;6.592;2022-09-17T00:49:10;17.80;99.90
51996;DHT22;38010;53.264;6.592;2022-09-17T00:51:39;17.80;99.90
51996;DHT22;38010;53.264;6.592;2022-09-17T00:54:08;17.80;99.90
51996;DHT22;38010;53.264;6.592;2022-09-17T00:56:37;17.80;99.90
51996;DHT22;38010;53.264;6.592;2022-09-17T00:59:04;17.80;99.90
51996;DHT22;38010;53.264;6.592;2022-09-17T01:01:30;17.80;99.90
51996;DHT22;38010;53.264;6.592;2022-09-17T01:03:56;17.80;99.90
51996;DHT22;38010;53.264;6.592;2022-09-17T01:06:39;17.80;99.90
51996;DHT22;38010;53.264;6.592;2022-09-17T01:14:54;17.80;99.90
51996;DHT22;38010;53.264;6.592;2022-09-17T01:17:44;17.80;99.90
51996;DHT22;38010;53.264;6.592;2022-09-17T01:29:28;17.80;99.90
51996;DHT22;38010;53.264;6.592;2022-09-17T01:34:45;17.70;99.90
51996;DHT22;38010;53.264;6.592;2022-09-17T01:37:56;17.80;99.90
51996;DHT22;38010;53.264;6.592;2022-09-17T01:40:35;17.80;99.90
51996;DHT22;38010;53.264;6.592;2022-09-17T01:43:42;17.70;99.90
51996;DHT22;38010;53.264;6.592;2022-09-17T01:46:35;17.70;99.90
51996;DHT22;38010;53.264;6.592;2022-09-17T01:49:05;17.70;99.90
51996;DHT22;38010;53.264;6.592;2022-09-17T01:51:37;17.70;99.90
51996;DHT22;38010;53.264;6.592;2022-09-17T01:54:32;17.70;99.90
51996;DHT22;38010;53.264;6.592;2022-09-17T01:59:38;17.70;99.90
51996;DHT22;38010;53.264;6.592;2022-09-17T02:02:26;17.70;99.90
51996;DHT22;38010;53.264;6.592;2022-09-17T02:05:02;17.70;99.90
51996;DHT22;38010;53.264;6.592;2022-09-17T02:07:31;17.70;99.90
51996;DHT22;38010;53.264;6.592;2022-09-17T02:10:06;17.70;99.90
51996;DHT22;38010;53.264;6.592;2022-09-17T02:12:36;17.60;99.90
51996;DHT22;38010;53.264;6.592;2022-09-17T02:15:07;17.70;99.90
51996;DHT22;38010;53.264;6.592;2022-09-17T02:17:54;17.60;99.90
51996;DHT22;38010;53.264;6.592;2022-09-17T02:20:25;17.60;99.90
51996;DHT22;38010;53.264;6.592;2022-09-17T02:22:56;17.60;99.90
51996;DHT22;38010;53.264;6.592;2022-09-17T02:25:43;17.60;99.90
51996;DHT22;38010;53.264;6.592;2022-09-17T02:28:35;17.60;99.90
51996;DHT22;38010;53.264;6.592;2022-09-17T02:31:02;17.60;99.90
51996;DHT22;38010;53.264;6.592;2022-09-17T02:33:31;17.60;99.90
51996;DHT22;38010;53.264;6.592;2022-09-17T02:35:57;17.50;99.90
51996;DHT22;38010;53.264;6.592;2022-09-17T02:38:28;17.60;99.90
51996;DHT22;38010;53.264;6.592;2022-09-17T02:41:25;17.60;99.90
51996;DHT22;38010;53.264;6.592;2022-09-17T02:55:17;17.60;99.90
51996;DHT22;38010;53.264;6.592;2022-09-17T02:57:53;17.60;99.90
51996;DHT22;38010;53.264;6.592;2022-09-17T03:00:23;17.60;99.90
51996;DHT22;38010;53.264;6.592;2022-09-17T03:03:07;17.60;99.90
51996;DHT22;38010;53.264;6.592;2022-09-17T03:05:35;17.60;99.90
51996;DHT22;38010;53.264;6.592;2022-09-17T03:08:02;17.60;99.90
51996;DHT22;38010;53.264;6.592;2022-09-17T03:10:28;17.60;99.90
51996;DHT22;38010;53.264;6.592;2022-09-17T03:12:57;17.60;99.90
51996;DHT22;38010;53.264;6.592;2022-09-17T03:15:22;17.60;99.90
51996;DHT22;38010;53.264;6.592;2022-09-17T03:17:48;17.60;99.90
51996;DHT22;38010;53.264;6.592;2022-09-17T03:20:14;17.60;99.90
51996;DHT22;38010;53.264;6.592;2022-09-17T03:22:40;17.60;99.90
51996;DHT22;38010;53.264;6.592;2022-09-17T03:25:07;17.60;99.90
51996;DHT22;38010;53.264;6.592;2022-09-17T03:27:32;17.60;99.90
51996;DHT22;38010;53.264;6.592;2022-09-17T03:29:58;17.60;99.90
51996;DHT22;38010;53.264;6.592;2022-09-17T03:32:24;17.60;99.90
51996;DHT22;38010;53.264;6.592;2022-09-17T03:34:50;17.60;99.90
51996;DHT22;38010;53.264;6.592;2022-09-17T03:37:16;17.60;99.90
51996;DHT22;38010;53.264;6.592;2022-09-17T03:39:41;17.50;99.90
51996;DHT22;38010;53.264;6.592;2022-09-17T03:42:07;17.60;99.90
51996;DHT22;38010;53.264;6.592;2022-09-17T03:44:33;17.60;99.90
51996;DHT22;38010;53.264;6.592;2022-09-17T03:46:58;17.60;99.90
51996;DHT22;38010;53.264;6.592;2022-09-17T03:49:24;17.50;99.90
51996;DHT22;38010;53.264;6.592;2022-09-17T03:51:49;17.60;99.90
51996;DHT22;38010;53.264;6.592;2022-09-17T03:54:15;17.50;99.90
51996;DHT22;38010;53.264;6.592;2022-09-17T03:56:42;17.50;99.90
51996;DHT22;38010;53.264;6.592;2022-09-17T03:59:08;17.50;99.90
51996;DHT22;38010;53.264;6.592;2022-09-17T04:01:33;17.60;99.90
51996;DHT22;38010;53.264;6.592;2022-09-17T04:04:01;17.50;99.90
51996;DHT22;38010;53.264;6.592;2022-09-17T04:06:27;17.50;99.90
51996;DHT22;38010;53.264;6.592;2022-09-17T04:08:52;17.50;99.90
51996;DHT22;38010;53.264;6.592;2022-09-17T04:11:18;17.50;99.90
51996;DHT22;38010;53.264;6.592;2022-09-17T04:13:44;17.50;99.90
51996;DHT22;38010;53.264;6.592;2022-09-17T04:16:09;17.50;99.90
51996;DHT22;38010;53.264;6.592;2022-09-17T04:18:36;17.40;99.90
51996;DHT22;38010;53.264;6.592;2022-09-17T04:21:01;17.50;99.90
51996;DHT22;38010;53.264;6.592;2022-09-17T04:23:28;17.50;99.90
51996;DHT22;38010;53.264;6.592;2022-09-17T04:25:53;17.50;99.90
51996;DHT22;38010;53.264;6.592;2022-09-17T04:28:19;17.50;99.90
51996;DHT22;38010;53.264;6.592;2022-09-17T04:30:47;17.40;99.90
51996;DHT22;38010;53.264;6.592;2022-09-17T04:33:12;17.50;99.90
51996;DHT22;38010;53.264;6.592;2022-09-17T04:35:38;17.50;99.90
51996;DHT22;38010;53.264;6.592;2022-09-17T04:38:04;17.50;99.90
51996;DHT22;38010;53.264;6.592;2022-09-17T04:40:29;17.50;99.90
51996;DHT22;38010;53.264;6.592;2022-09-17T04:42:56;17.50;99.90
51996;DHT22;38010;53.264;6.592;2022-09-17T04:45:25;17.50;99.90
51996;DHT22;38010;53.264;6.592;2022-09-17T04:47:51;17.50;99.90
51996;DHT22;38010;53.264;6.592;2022-09-17T04:50:20;17.50;99.90
51996;DHT22;38010;53.264;6.592;2022-09-17T04:52:46;17.50;99.90
51996;DHT22;38010;53.264;6.592;2022-09-17T04:55:13;17.50;99.90
51996;DHT22;38010;53.264;6.592;2022-09-17T04:57:45;17.50;99.90
51996;DHT22;38010;53.264;6.592;2022-09-17T05:00:12;17.50;99.90
51996;DHT22;38010;53.264;6.592;2022-09-17T05:02:37;17.50;99.90
51996;DHT22;38010;53.264;6.592;2022-09-17T05:05:03;17.40;99.90
51996;DHT22;38010;53.264;6.592;2022-09-17T05:07:29;17.50;99.90
51996;DHT22;38010;53.264;6.592;2022-09-17T05:09:54;17.40;99.90
51996;DHT22;38010;53.264;6.592;2022-09-17T05:12:20;17.40;99.90
51996;DHT22;38010;53.264;6.592;2022-09-17T05:14:46;17.40;99.90
51996;DHT22;38010;53.264;6.592;2022-09-17T05:17:11;17.50;99.90
51996;DHT22;38010;53.264;6.592;2022-09-17T05:19:37;17.40;99.90
51996;DHT22;38010;53.264;6.592;2022-09-17T05:22:02;17.40;99.90
51996;DHT22;38010;53.264;6.592;2022-09-17T05:24:28;17.40;99.90
51996;DHT22;38010;53.264;6.592;2022-09-17T05:26:54;17.40;99.90
51996;DHT22;38010;53.264;6.592;2022-09-17T05:29:19;17.40;99.90
51996;DHT22;38010;53.264;6.592;2022-09-17T05:31:45;17.50;99.90
51996;DHT22;38010;53.264;6.592;2022-09-17T05:34:11;17.40;99.90
51996;DHT22;38010;53.264;6.592;2022-09-17T05:36:37;17.40;99.90
51996;DHT22;38010;53.264;6.592;2022-09-17T05:39:02;17.40;99.90
51996;DHT22;38010;53.264;6.592;2022-09-17T05:41:28;17.40;99.90
51996;DHT22;38010;53.264;6.592;2022-09-17T05:43:54;17.40;99.90
51996;DHT22;38010;53.264;6.592;2022-09-17T05:46:19;17.40;99.90
51996;DHT22;38010;53.264;6.592;2022-09-17T05:48:45;17.40;99.90
51996;DHT22;38010;53.264;6.592;2022-09-17T05:51:10;17.40;99.90
51996;DHT22;38010;53.264;6.592;2022-09-17T05:53:36;17.40;99.90
51996;DHT22;38010;53.264;6.592;2022-09-17T05:56:02;17.50;99.90
51996;DHT22;38010;53.264;6.592;2022-09-17T05:58:28;17.40;99.90
51996;DHT22;38010;53.264;6.592;2022-09-17T06:00:54;17.40;99.90
51996;DHT22;38010;53.264;6.592;2022-09-17T06:03:20;17.40;99.90
51996;DHT22;38010;53.264;6.592;2022-09-17T06:05:53;17.40;99.90
51996;DHT22;38010;53.264;6.592;2022-09-17T06:08:19;17.40;99.90
51996;DHT22;38010;53.264;6.592;2022-09-17T06:10:44;17.40;99.90
51996;DHT22;38010;53.264;6.592;2022-09-17T06:13:10;17.40;99.90
51996;DHT22;38010;53.264;6.592;2022-09-17T06:15:35;17.40;99.90
51996;DHT22;38010;53.264;6.592;2022-09-17T06:18:01;17.40;99.90
51996;DHT22;38010;53.264;6.592;2022-09-17T06:20:27;17.40;99.90
51996;DHT22;38010;53.264;6.592;2022-09-17T06:22:56;17.40;99.90
51996;DHT22;38010;53.264;6.592;2022-09-17T06:25:22;17.40;99.90
51996;DHT22;38010;53.264;6.592;2022-09-17T06:27:48;17.40;99.90
51996;DHT22;38010;53.264;6.592;2022-09-17T06:30:14;17.40;99.90
51996;DHT22;38010;53.264;6.592;2022-09-17T06:32:39;17.40;99.90
51996;DHT22;38010;53.264;6.592;2022-09-17T06:35:05;17.40;99.90
51996;DHT22;38010;53.264;6.592;2022-09-17T06:37:32;17.40;99.90
51996;DHT22;38010;53.264;6.592;2022-09-17T06:39:58;17.40;99.90
51996;DHT22;38010;53.264;6.592;2022-09-17T06:42:27;17.40;99.90
51996;DHT22;38010;53.264;6.592;2022-09-17T06:44:53;17.40;99.90
51996;DHT22;38010;53.264;6.592;2022-09-17T06:47:19;17.40;99.90
51996;DHT22;38010;53.264;6.592;2022-09-17T06:49:45;17.40;99.90
51996;DHT22;38010;53.264;6.592;2022-09-17T06:52:10;17.40;99.90
51996;DHT22;38010;53.264;6.592;2022-09-17T06:54:36;17.40;99.90
51996;DHT22;38010;53.264;6.592;2022-09-17T06:57:02;17.40;99.90
51996;DHT22;38010;53.264;6.592;2022-09-17T06:59:27;17.40;99.90
51996;DHT22;38010;53.264;6.592;2022-09-17T07:01:53;17.40;99.90
51996;DHT22;38010;53.264;6.592;2022-09-17T07:04:19;17.40;99.90
51996;DHT22;38010;53.264;6.592;2022-09-17T07:06:45;17.40;99.90
51996;DHT22;38010;53.264;6.592;2022-09-17T07:09:11;17.40;99.90
51996;DHT22;38010;53.264;6.592;2022-09-17T07:11:39;17.40;99.90
51996;DHT22;38010;53.264;6.592;2022-09-17T07:14:05;17.40;99.90
51996;DHT22;38010;53.264;6.592;2022-09-17T07:16:31;17.40;99.90
51996;DHT22;38010;53.264;6.592;2022-09-17T07:19:04;17.40;99.90
51996;DHT22;38010;53.264;6.592;2022-09-17T07:21:30;17.40;99.90
51996;DHT22;38010;53.264;6.592;2022-09-17T07:23:56;17.40;99.90
51996;DHT22;38010;53.264;6.592;2022-09-17T07:26:21;17.40;99.90
51996;DHT22;38010;53.264;6.592;2022-09-17T07:28:47;17.40;99.90
51996;DHT22;38010;53.264;6.592;2022-09-17T07:31:13;17.40;99.90
51996;DHT22;38010;53.264;6.592;2022-09-17T07:33:39;17.40;99.90
51996;DHT22;38010;53.264;6.592;2022-09-17T07:36:08;17.40;99.90
51996;DHT22;38010;53.264;6.592;2022-09-17T07:38:34;17.40;99.90
51996;DHT22;38010;53.264;6.592;2022-09-17T07:41:14;17.40;99.90
51996;DHT22;38010;53.264;6.592;2022-09-17T07:43:40;17.40;99.90
51996;DHT22;38010;53.264;6.592;2022-09-17T07:46:07;17.40;99.90
51996;DHT22;38010;53.264;6.592;2022-09-17T07:48:34;17.40;99.90
51996;DHT22;38010;53.264;6.592;2022-09-17T07:51:00;17.40;99.90
51996;DHT22;38010;53.264;6.592;2022-09-17T07:53:25;17.40;99.90
51996;DHT22;38010;53.264;6.592;2022-09-17T07:58:18;17.50;99.90
51996;DHT22;38010;53.264;6.592;2022-09-17T08:00:44;17.40;99.90
51996;DHT22;38010;53.264;6.592;2022-09-17T08:03:10;17.40;99.90
51996;DHT22;38010;53.264;6.592;2022-09-17T08:05:36;17.40;99.90
51996;DHT22;38010;53.264;6.592;2022-09-17T08:08:02;17.40;99.90
51996;DHT22;38010;53.264;6.592;2022-09-17T08:10:28;17.40;99.90
51996;DHT22;38010;53.264;6.592;2022-09-17T08:12:55;17.30;99.90
51996;DHT22;38010;53.264;6.592;2022-09-17T08:15:22;17.40;99.90
51996;DHT22;38010;53.264;6.592;2022-09-17T08:17:49;17.50;99.90
51996;DHT22;38010;53.264;6.592;2022-09-17T08:20:16;17.40;99.90
51996;DHT22;38010;53.264;6.592;2022-09-17T08:22:42;17.40;99.90
51996;DHT22;38010;53.264;6.592;2022-09-17T08:25:08;17.50;99.90
51996;DHT22;38010;53.264;6.592;2022-09-17T08:27:35;17.50;99.90
51996;DHT22;38010;53.264;6.592;2022-09-17T08:30:04;17.50;99.90
51996;DHT22;38010;53.264;6.592;2022-09-17T08:32:30;17.50;99.90
51996;DHT22;38010;53.264;6.592;2022-09-17T08:34:55;17.50;99.90
51996;DHT22;38010;53.264;6.592;2022-09-17T08:37:21;17.50;99.90
51996;DHT22;38010;53.264;6.592;2022-09-17T08:39:47;17.50;99.90
51996;DHT22;38010;53.264;6.592;2022-09-17T08:42:32;17.50;99.90
51996;DHT22;38010;53.264;6.592;2022-09-17T08:45:09;17.50;99.90
51996;DHT22;38010;53.264;6.592;2022-09-17T08:47:40;17.50;99.90
51996;DHT22;38010;53.264;6.592;2022-09-17T08:50:17;17.50;99.90
51996;DHT22;38010;53.264;6.592;2022-09-17T08:56:11;17.50;99.90
51996;DHT22;38010;53.264;6.592;2022-09-17T08:58:56;17.50;99.90
51996;DHT22;38010;53.264;6.592;2022-09-17T09:01:58;17.50;99.90
51996;DHT22;38010;53.264;6.592;2022-09-17T09:04:48;17.50;99.90
51996;DHT22;38010;53.264;6.592;2022-09-17T09:07:19;17.40;99.90
51996;DHT22;38010;53.264;6.592;2022-09-17T09:10:00;17.50;99.90
51996;DHT22;38010;53.264;6.592;2022-09-17T09:12:32;17.50;99.90
51996;DHT22;38010;53.264;6.592;2022-09-17T09:15:02;17.50;99.90
51996;DHT22;38010;53.264;6.592;2022-09-17T09:17:36;17.50;99.90
51996;DHT22;38010;53.264;6.592;2022-09-17T09:20:03;17.50;99.90
51996;DHT22;38010;53.264;6.592;2022-09-17T09:22:48;17.50;99.90
51996;DHT22;38010;53.264;6.592;2022-09-17T09:25:19;17.50;99.90
51996;DHT22;38010;53.264;6.592;2022-09-17T09:30:17;17.40;99.90
51996;DHT22;38010;53.264;6.592;2022-09-17T09:33:12;17.50;99.90
51996;DHT22;38010;53.264;6.592;2022-09-17T09:35:41;17.50;99.90
51996;DHT22;38010;53.264;6.592;2022-09-17T09:40:56;17.40;99.90
51996;DHT22;38010;53.264;6.592;2022-09-17T09:49:26;17.40;99.90
51996;DHT22;38010;53.264;6.592;2022-09-17T09:57:29;17.40;99.90
51996;DHT22;38010;53.264;6.592;2022-09-17T10:00:22;17.40;99.90
51996;DHT22;38010;53.264;6.592;2022-09-17T10:02:54;17.50;99.90
51996;DHT22;38010;53.264;6.592;2022-09-17T10:05:22;17.40;99.90
51996;DHT22;38010;53.264;6.592;2022-09-17T10:07:48;17.50;99.90
51996;DHT22;38010;53.264;6.592;2022-09-17T10:10:14;17.50;99.90
51996;DHT22;38010;53.264;6.592;2022-09-17T10:12:40;17.50;99.90
51996;DHT22;38010;53.264;6.592;2022-09-17T10:15:26;17.50;99.90
51996;DHT22;38010;53.264;6.592;2022-09-17T10:20:55;17.40;99.90
51996;DHT22;38010;53.264;6.592;2022-09-17T10:23:23;17.50;99.90
51996;DHT22;38010;53.264;6.592;2022-09-17T10:25:50;17.50;99.90
51996;DHT22;38010;53.264;6.592;2022-09-17T10:31:07;17.50;99.90
51996;DHT22;38010;53.264;6.592;2022-09-17T10:33:49;17.50;99.90
51996;DHT22;38010;53.264;6.592;2022-09-17T10:36:16;17.50;99.90
51996;DHT22;38010;53.264;6.592;2022-09-17T10:38:49;17.40;99.90
51996;DHT22;38010;53.264;6.592;2022-09-17T10:41:20;17.50;99.90
51996;DHT22;38010;53.264;6.592;2022-09-17T10:43:49;17.50;99.90
51996;DHT22;38010;53.264;6.592;2022-09-17T10:46:27;17.50;99.90
51996;DHT22;38010;53.264;6.592;2022-09-17T10:49:05;17.50;99.90
51996;DHT22;38010;53.264;6.592;2022-09-17T10:51:32;17.60;99.90
51996;DHT22;38010;53.264;6.592;2022-09-17T10:54:31;17.50;99.90
51996;DHT22;38010;53.264;6.592;2022-09-17T10:57:01;17.60;99.90
51996;DHT22;38010;53.264;6.592;2022-09-17T11:02:34;17.60;99.90
51996;DHT22;38010;53.264;6.592;2022-09-17T11:11:00;17.70;99.90
51996;DHT22;38010;53.264;6.592;2022-09-17T11:16:40;17.70;99.90
51996;DHT22;38010;53.264;6.592;2022-09-17T11:19:44;17.70;99.90
51996;DHT22;38010;53.264;6.592;2022-09-17T11:28:43;17.70;99.90
51996;DHT22;38010;53.264;6.592;2022-09-17T11:31:35;17.70;99.90
51996;DHT22;38010;53.264;6.592;2022-09-17T11:37:09;17.80;99.90
51996;DHT22;38010;53.264;6.592;2022-09-17T11:39:46;17.80;99.90
51996;DHT22;38010;53.264;6.592;2022-09-17T11:42:18;17.70;99.90
51996;DHT22;38010;53.264;6.592;2022-09-17T11:45:05;17.80;99.90
51996;DHT22;38010;53.264;6.592;2022-09-17T11:47:40;17.80;99.90
51996;DHT22;38010;53.264;6.592;2022-09-17T11:56:23;17.80;99.90
51996;DHT22;38010;53.264;6.592;2022-09-17T11:58:42;17.80;99.90
51996;DHT22;38010;53.264;6.592;2022-09-17T12:01:43;17.80;99.90
51996;DHT22;38010;53.264;6.592;2022-09-17T12:04:15;17.80;99.90
51996;DHT22;38010;53.264;6.592;2022-09-17T12:06:51;17.80;99.90
51996;DHT22;38010;53.264;6.592;2022-09-17T12:09:21;17.90;99.90
51996;DHT22;38010;53.264;6.592;2022-09-17T12:12:07;17.80;99.90
51996;DHT22;38010;53.264;6.592;2022-09-17T12:14:52;17.80;99.90
51996;DHT22;38010;53.264;6.592;2022-09-17T12:17:40;17.90;99.90
51996;DHT22;38010;53.264;6.592;2022-09-17T12:20:18;17.90;99.90
51996;DHT22;38010;53.264;6.592;2022-09-17T12:22:50;17.90;99.90
51996;DHT22;38010;53.264;6.592;2022-09-17T12:25:16;17.90;99.90
51996;DHT22;38010;53.264;6.592;2022-09-17T12:28:08;17.90;99.90
51996;DHT22;38010;53.264;6.592;2022-09-17T12:30:41;17.90;99.90
51996;DHT22;38010;53.264;6.592;2022-09-17T12:33:17;17.90;99.90
51996;DHT22;38010;53.264;6.592;2022-09-17T12:35:50;18.00;99.90
51996;DHT22;38010;53.264;6.592;2022-09-17T12:38:55;18.00;99.90
51996;DHT22;38010;53.264;6.592;2022-09-17T12:41:32;18.00;99.90
51996;DHT22;38010;53.264;6.592;2022-09-17T12:44:38;18.10;99.90
51996;DHT22;38010;53.264;6.592;2022-09-17T12:47:25;18.10;99.90
51996;DHT22;38010;53.264;6.592;2022-09-17T12:50:21;18.20;99.90
51996;DHT22;38010;53.264;6.592;2022-09-17T12:58:36;18.30;99.90
51996;DHT22;38010;53.264;6.592;2022-09-17T13:01:34;18.40;99.90
51996;DHT22;38010;53.264;6.592;2022-09-17T13:10:49;18.80;99.90
51996;DHT22;38010;53.264;6.592;2022-09-17T13:13:34;18.80;99.90
51996;DHT22;38010;53.264;6.592;2022-09-17T13:24:22;19.80;99.90
51996;DHT22;38010;53.264;6.592;2022-09-17T13:26:51;20.20;99.90
51996;DHT22;38010;53.264;6.592;2022-09-17T13:37:54;20.60;99.90
51996;DHT22;38010;53.264;6.592;2022-09-17T13:42:55;20.70;99.90
51996;DHT22;38010;53.264;6.592;2022-09-17T13:45:22;20.80;99.90
51996;DHT22;38010;53.264;6.592;2022-09-17T13:52:52;20.80;99.90
51996;DHT22;38010;53.264;6.592;2022-09-17T13:58:05;21.00;99.60
51996;DHT22;38010;53.264;6.592;2022-09-17T14:00:53;21.00;99.40
51996;DHT22;38010;53.264;6.592;2022-09-17T14:29:49;19.90;99.90
51996;DHT22;38010;53.264;6.592;2022-09-17T14:32:51;19.80;99.90
51996;DHT22;38010;53.264;6.592;2022-09-17T14:35:22;19.80;99.90
51996;DHT22;38010;53.264;6.592;2022-09-17T14:37:57;19.70;99.90
51996;DHT22;38010;53.264;6.592;2022-09-17T14:40:25;19.60;99.90
51996;DHT22;38010;53.264;6.592;2022-09-17T14:42:54;19.60;99.90
51996;DHT22;38010;53.264;6.592;2022-09-17T14:45:29;19.50;99.90
51996;DHT22;38010;53.264;6.592;2022-09-17T14:50:44;19.60;99.90
51996;DHT22;38010;53.264;6.592;2022-09-17T14:53:17;19.60;99.90
51996;DHT22;38010;53.264;6.592;2022-09-17T14:55:48;19.60;99.90
51996;DHT22;38010;53.264;6.592;2022-09-17T14:58:52;19.60;99.90
51996;DHT22;38010;53.264;6.592;2022-09-17T15:01:25;19.70;99.90
51996;DHT22;38010;53.264;6.592;2022-09-17T15:06:44;19.50;99.90
51996;DHT22;38010;53.264;6.592;2022-09-17T15:09:20;19.40;99.90
51996;DHT22;38010;53.264;6.592;2022-09-17T15:11:46;19.40;99.90
51996;DHT22;38010;53.264;6.592;2022-09-17T15:14:18;19.30;99.90
51996;DHT22;38010;53.264;6.592;2022-09-17T15:16:50;19.30;99.90
51996;DHT22;38010;53.264;6.592;2022-09-17T15:19:26;19.30;99.90
51996;DHT22;38010;53.264;6.592;2022-09-17T15:21:56;19.20;99.90
51996;DHT22;38010;53.264;6.592;2022-09-17T15:27:22;19.10;99.90
51996;DHT22;38010;53.264;6.592;2022-09-17T15:29:55;19.10;99.90
51996;DHT22;38010;53.264;6.592;2022-09-17T15:32:22;19.00;99.90
51996;DHT22;38010;53.264;6.592;2022-09-17T15:37:46;18.90;99.90
51996;DHT22;38010;53.264;6.592;2022-09-17T15:40:15;19.00;99.90
51996;DHT22;38010;53.264;6.592;2022-09-17T15:42:53;19.00;99.90
51996;DHT22;38010;53.264;6.592;2022-09-17T15:45:25;19.10;99.90
51996;DHT22;38010;53.264;6.592;2022-09-17T15:48:00;19.00;99.90
51996;DHT22;38010;53.264;6.592;2022-09-17T15:50:52;19.00;99.90
51996;DHT22;38010;53.264;6.592;2022-09-17T15:53:25;18.90;99.90
51996;DHT22;38010;53.264;6.592;2022-09-17T15:56:17;18.90;99.90
51996;DHT22;38010;53.264;6.592;2022-09-17T16:11:12;18.90;99.90
51996;DHT22;38010;53.264;6.592;2022-09-17T16:13:38;18.80;99.90
51996;DHT22;38010;53.264;6.592;2022-09-17T16:16:04;18.80;99.90
51996;DHT22;38010;53.264;6.592;2022-09-17T16:18:29;18.80;99.90
51996;DHT22;38010;53.264;6.592;2022-09-17T16:20:55;18.70;99.90
51996;DHT22;38010;53.264;6.592;2022-09-17T16:23:21;18.70;99.90
51996;DHT22;38010;53.264;6.592;2022-09-17T16:25:47;18.70;99.90
51996;DHT22;38010;53.264;6.592;2022-09-17T16:28:18;18.70;99.90
51996;DHT22;38010;53.264;6.592;2022-09-17T16:30:46;18.60;99.90
51996;DHT22;38010;53.264;6.592;2022-09-17T16:33:14;18.60;99.90
51996;DHT22;38010;53.264;6.592;2022-09-17T16:35:41;18.60;99.90
51996;DHT22;38010;53.264;6.592;2022-09-17T16:38:07;18.50;99.90
51996;DHT22;38010;53.264;6.592;2022-09-17T16:40:33;18.50;99.90
51996;DHT22;38010;53.264;6.592;2022-09-17T16:43:00;18.50;99.90
51996;DHT22;38010;53.264;6.592;2022-09-17T16:45:30;18.50;99.90
51996;DHT22;38010;53.264;6.592;2022-09-17T16:47:56;18.50;99.90
51996;DHT22;38010;53.264;6.592;2022-09-17T16:50:22;18.40;99.90
51996;DHT22;38010;53.264;6.592;2022-09-17T16:52:47;18.40;99.90
51996;DHT22;38010;53.264;6.592;2022-09-17T16:55:15;18.40;99.90
51996;DHT22;38010;53.264;6.592;2022-09-17T16:57:41;18.40;99.90
51996;DHT22;38010;53.264;6.592;2022-09-17T17:00:09;18.30;99.90
51996;DHT22;38010;53.264;6.592;2022-09-17T17:02:40;18.30;99.90
51996;DHT22;38010;53.264;6.592;2022-09-17T17:05:06;18.30;99.90
51996;DHT22;38010;53.264;6.592;2022-09-17T17:07:34;18.30;99.90
51996;DHT22;38010;53.264;6.592;2022-09-17T17:09:59;18.30;99.90
51996;DHT22;38010;53.264;6.592;2022-09-17T17:12:26;18.30;99.90
51996;DHT22;38010;53.264;6.592;2022-09-17T17:14:52;18.20;99.90
51996;DHT22;38010;53.264;6.592;2022-09-17T17:17:18;18.20;99.90
51996;DHT22;38010;53.264;6.592;2022-09-17T17:19:44;18.20;99.90
51996;DHT22;38010;53.264;6.592;2022-09-17T17:22:11;18.20;99.90
51996;DHT22;38010;53.264;6.592;2022-09-17T17:24:37;18.20;99.90
51996;DHT22;38010;53.264;6.592;2022-09-17T17:27:03;18.10;99.90
51996;DHT22;38010;53.264;6.592;2022-09-17T17:29:29;18.10;99.90
51996;DHT22;38010;53.264;6.592;2022-09-17T17:31:55;18.10;99.90
51996;DHT22;38010;53.264;6.592;2022-09-17T17:34:21;18.00;99.90
51996;DHT22;38010;53.264;6.592;2022-09-17T17:36:50;18.00;99.90
51996;DHT22;38010;53.264;6.592;2022-09-17T17:39:15;18.00;99.90
51996;DHT22;38010;53.264;6.592;2022-09-17T17:41:41;18.00;99.90
51996;DHT22;38010;53.264;6.592;2022-09-17T17:44:08;18.00;99.90
51996;DHT22;38010;53.264;6.592;2022-09-17T17:46:37;18.00;99.90
51996;DHT22;38010;53.264;6.592;2022-09-17T17:49:03;18.00;99.90
51996;DHT22;38010;53.264;6.592;2022-09-17T17:51:29;17.90;99.90
51996;DHT22;38010;53.264;6.592;2022-09-17T17:53:54;17.90;99.90
51996;DHT22;38010;53.264;6.592;2022-09-17T17:56:20;17.90;99.90
51996;DHT22;38010;53.264;6.592;2022-09-17T17:58:46;17.90;99.90
51996;DHT22;38010;53.264;6.592;2022-09-17T18:01:19;17.80;99.90
51996;DHT22;38010;53.264;6.592;2022-09-17T18:03:46;17.80;99.90
51996;DHT22;38010;53.264;6.592;2022-09-17T18:06:12;17.80;99.90
51996;DHT22;38010;53.264;6.592;2022-09-17T18:08:39;17.90;99.90
51996;DHT22;38010;53.264;6.592;2022-09-17T18:11:06;17.80;99.90
51996;DHT22;38010;53.264;6.592;2022-09-17T18:13:33;17.80;99.90
51996;DHT22;38010;53.264;6.592;2022-09-17T18:16:00;17.80;99.90
51996;DHT22;38010;53.264;6.592;2022-09-17T18:18:37;17.80;99.90
51996;DHT22;38010;53.264;6.592;2022-09-17T18:21:05;17.80;99.90
51996;DHT22;38010;53.264;6.592;2022-09-17T18:23:34;17.80;99.90
51996;DHT22;38010;53.264;6.592;2022-09-17T18:26:01;17.70;99.90
51996;DHT22;38010;53.264;6.592;2022-09-17T18:28:28;17.70;99.90
51996;DHT22;38010;53.264;6.592;2022-09-17T18:30:54;17.60;99.90
51996;DHT22;38010;53.264;6.592;2022-09-17T18:33:23;17.70;99.90
51996;DHT22;38010;53.264;6.592;2022-09-17T18:35:52;17.70;99.90
51996;DHT22;38010;53.264;6.592;2022-09-17T18:38:24;17.70;99.90
51996;DHT22;38010;53.264;6.592;2022-09-17T18:40:50;17.70;99.90
51996;DHT22;38010;53.264;6.592;2022-09-17T18:43:16;17.70;99.90
51996;DHT22;38010;53.264;6.592;2022-09-17T18:45:42;17.70;99.90
51996;DHT22;38010;53.264;6.592;2022-09-17T18:48:08;17.70;99.90
51996;DHT22;38010;53.264;6.592;2022-09-17T18:50:34;17.70;99.90